Terminal Aerodrome Forecast
Issued by NWS

Current Version | Previous Version | Graphics & Text | Print | Product List | Glossary On
Versions: 1 2 3 4 5 6 7 8 9 10 11 12 13 14 15 16 17 18 19 20 21 22 23 24 25 26
966
FTUS41 KRNK 251144
TAFLWB
TAF
KLWB 251144Z 2512/2612 28004KT P6SM SCT040 BKN250
     FM251400 28008G16KT P6SM SCT050 SCT250
     FM252300 00000KT P6SM SCT050
      TEMPO 2608/2612 4SM BR=

USA.gov is the U.S. government's official web portal to all federal, state and local government web resources and services.